Abbott, Pennsylvania
Current Conditions -  °F | °C
As of 6:15 AM on Tuesday 21 Oct 2014 (Local Time) from KN38 Reporting Station
Light Rain Light Rain  
Wind Chill: 45°   Ceiling: 900
Heat Index: 45°   Visibility: 5mi
Dew Point: 43°   Wind: 3mph
Humidity: 93%   Direction: 200°SSW
Pressure: 29.83"   Gusts: NA
Location:  41.6755°N, 77.7071°W
Report Text: KN38 211015Z AUTO 20003KT 5SM -RA BKN009 OVC014 07/06 A2983 RMK AO2
Loading
Personal Weather Stations






























Interactive Weather Map
Tropical Storm Tracking
New forecast layout! Learn more

10-Day Weather Forecast

Advertisements
Track Severe Weather on mobile